createdAt,value
2023-04-28T00:02:26.672Z,100650.03
2023-04-28T00:05:12.091Z,100648.25
2023-04-28T00:07:57.292Z,100653.50
2023-04-28T00:10:42.786Z,100649.88
2023-04-28T00:13:28.211Z,100636.91
2023-04-28T00:16:13.455Z,100633.41
2023-04-28T00:18:58.838Z,100633.63
2023-04-28T00:21:43.558Z,100627.72
2023-04-28T00:24:28.429Z,100626.69
2023-04-28T00:27:13.764Z,100617.03
2023-04-28T00:29:58.649Z,100626.75
2023-04-28T00:32:43.996Z,100623.06
2023-04-28T00:35:29.380Z,100616.19
2023-04-28T00:38:14.892Z,100625.81
2023-04-28T00:41:00.145Z,100607.81
2023-04-28T00:43:46.408Z,100610.34
2023-04-28T00:46:33.556Z,100616.41
2023-04-28T00:49:18.811Z,100614.75
2023-04-28T00:52:07.360Z,100617.34
2023-04-28T00:54:52.707Z,100620.09
2023-04-28T00:57:38.327Z,100619.91
2023-04-28T01:00:23.393Z,100612.91
2023-04-28T01:03:09.740Z,100607.72
2023-04-28T01:05:55.706Z,100606.00
2023-04-28T01:08:40.729Z,100612.00
2023-04-28T01:11:25.647Z,100587.91
2023-04-28T01:14:10.502Z,100603.41
2023-04-28T01:16:56.512Z,100604.09
2023-04-28T01:19:42.034Z,100596.28
2023-04-28T01:22:27.169Z,100590.38
2023-04-28T01:25:11.941Z,100579.00
2023-04-28T01:27:56.740Z,100589.41
2023-04-28T01:30:42.237Z,100592.16
2023-04-28T01:33:27.677Z,100587.06
2023-04-28T01:36:12.962Z,100605.19
2023-04-28T01:38:58.158Z,100598.22
2023-04-28T01:41:43.129Z,100579.94
2023-04-28T01:44:28.625Z,100583.50
2023-04-28T01:47:13.890Z,100578.25
2023-04-28T01:49:58.755Z,100580.06
2023-04-28T01:52:44.263Z,100571.44
2023-04-28T01:55:47.872Z,100572.19
2023-04-28T01:58:32.788Z,100585.22
2023-04-28T02:01:18.192Z,100573.91
2023-04-28T02:04:03.606Z,100565.38
2023-04-28T02:06:48.824Z,100556.88
2023-04-28T02:09:34.224Z,100553.31
2023-04-28T02:12:19.606Z,100557.59
2023-04-28T02:15:05.374Z,100549.75
2023-04-28T02:17:50.734Z,100564.44
2023-04-28T02:20:36.166Z,100559.09
2023-04-28T02:23:20.947Z,100559.88
2023-04-28T02:26:06.155Z,100565.19
2023-04-28T02:28:51.428Z,100560.94
2023-04-28T02:31:36.544Z,100558.31
2023-04-28T02:34:21.920Z,100544.59
2023-04-28T02:37:06.867Z,100544.44
2023-04-28T02:39:52.177Z,100554.13
2023-04-28T02:42:37.056Z,100555.66
2023-04-28T02:45:22.006Z,100535.13
2023-04-28T02:48:06.912Z,100537.06
2023-04-28T02:50:52.545Z,100536.81
2023-04-28T02:53:37.615Z,100538.69
2023-04-28T02:56:22.664Z,100524.97
2023-04-28T02:59:07.680Z,100524.06
2023-04-28T03:01:52.616Z,100523.16
2023-04-28T03:04:38.327Z,100523.25
2023-04-28T03:07:23.620Z,100524.84
2023-04-28T03:10:09.061Z,100523.03
2023-04-28T03:12:53.897Z,100520.41
2023-04-28T03:15:39.231Z,100526.69
2023-04-28T03:18:24.280Z,100523.19
2023-04-28T03:21:09.241Z,100525.91
2023-04-28T03:23:54.255Z,100524.13
2023-04-28T03:26:39.093Z,100520.78
2023-04-28T03:29:24.109Z,100516.59
2023-04-28T03:32:09.618Z,100508.69
2023-04-28T03:34:54.835Z,100509.69
2023-04-28T03:37:40.069Z,100500.19
2023-04-28T03:40:25.188Z,100504.38
2023-04-28T03:43:10.617Z,100495.81
2023-04-28T03:45:55.788Z,100492.34
2023-04-28T03:48:40.829Z,100501.09
2023-04-28T03:51:25.718Z,100496.53
2023-04-28T03:54:10.785Z,100490.56
2023-04-28T03:56:56.007Z,100491.56
2023-04-28T03:59:41.291Z,100498.34
2023-04-28T04:02:26.279Z,100494.16
2023-04-28T04:05:11.473Z,100492.56
2023-04-28T04:07:56.858Z,100493.34
2023-04-28T04:10:41.644Z,100495.09
2023-04-28T04:13:26.689Z,100504.69
2023-04-28T04:16:12.232Z,100501.03
2023-04-28T04:18:57.502Z,100494.19
2023-04-28T04:21:42.441Z,100494.16
2023-04-28T04:24:27.326Z,100503.69
2023-04-28T04:27:12.620Z,100505.28
2023-04-28T04:29:57.950Z,100510.59
2023-04-28T04:32:42.950Z,100507.06
2023-04-28T04:35:28.484Z,100503.72
2023-04-28T04:38:13.650Z,100506.09
2023-04-28T04:40:58.495Z,100503.56
2023-04-28T04:43:43.356Z,100497.47
2023-04-28T04:46:28.401Z,100512.16
2023-04-28T04:49:13.701Z,100509.53
2023-04-28T04:51:58.529Z,100506.00
2023-04-28T04:54:43.931Z,100498.34
2023-04-28T04:57:28.784Z,100509.53
2023-04-28T05:00:14.149Z,100508.63
2023-04-28T05:02:59.177Z,100492.16
2023-04-28T05:05:46.202Z,100487.03
2023-04-28T05:08:31.503Z,100487.13
2023-04-28T05:11:16.597Z,100486.31
2023-04-28T05:14:01.781Z,100487.25
2023-04-28T05:16:47.092Z,100483.75
2023-04-28T05:19:32.095Z,100484.63
2023-04-28T05:22:17.510Z,100487.13
2023-04-28T05:25:03.011Z,100490.66
2023-04-28T05:27:48.343Z,100490.66
2023-04-28T05:30:33.937Z,100494.19
2023-04-28T05:33:19.131Z,100494.84
2023-04-28T05:36:04.738Z,100489.75
2023-04-28T05:38:49.863Z,100491.50
2023-04-28T05:41:35.626Z,100506.97
2023-04-28T05:44:20.795Z,100496.56
2023-04-28T05:47:06.542Z,100497.69
2023-04-28T05:49:51.550Z,100495.94
2023-04-28T05:52:36.481Z,100492.56
2023-04-28T05:55:22.073Z,100492.63
2023-04-28T05:58:07.319Z,100495.22
2023-04-28T06:00:52.476Z,100496.19
2023-04-28T06:03:38.025Z,100504.78
2023-04-28T06:06:23.510Z,100508.22
2023-04-28T06:09:08.726Z,100506.56
2023-04-28T06:11:54.090Z,100514.97
2023-04-28T06:14:39.394Z,100500.38
2023-04-28T06:17:24.892Z,100506.31
2023-04-28T06:20:10.320Z,100505.69
2023-04-28T06:22:55.240Z,100495.16
2023-04-28T06:25:40.292Z,100484.88
2023-04-28T06:28:25.837Z,100494.31
2023-04-28T06:31:10.996Z,100480.53
2023-04-28T06:33:56.239Z,100472.13
2023-04-28T06:36:41.483Z,100467.81
2023-04-28T06:39:28.078Z,100467.81
2023-04-28T06:42:13.012Z,100471.47
2023-04-28T06:44:57.917Z,100471.41
2023-04-28T06:47:43.352Z,100462.03
2023-04-28T06:50:29.104Z,100455.19
2023-04-28T06:53:14.386Z,100458.59
2023-04-28T06:55:59.322Z,100460.31
2023-04-28T06:58:44.513Z,100463.94
2023-04-28T07:01:29.739Z,100454.50
2023-04-28T07:04:15.304Z,100452.78
2023-04-28T07:07:00.461Z,100456.47
2023-04-28T07:09:45.922Z,100450.34
2023-04-28T07:12:31.248Z,100449.69
2023-04-28T07:15:16.111Z,100453.31
2023-04-28T07:18:01.109Z,100440.47
2023-04-28T07:20:46.595Z,100444.03
2023-04-28T07:23:31.762Z,100429.38
2023-04-28T07:26:16.970Z,100447.97
2023-04-28T07:29:02.503Z,100448.97
2023-04-28T07:31:47.856Z,100441.25
2023-04-28T07:34:33.162Z,100445.59
2023-04-28T07:37:18.433Z,100445.81
2023-04-28T07:40:04.397Z,100432.91
2023-04-28T07:42:49.572Z,100442.53
2023-04-28T07:45:39.186Z,100427.13
2023-04-28T07:48:24.608Z,100424.50
2023-04-28T07:51:09.749Z,100414.34
2023-04-28T07:53:54.733Z,100417.00
2023-04-28T07:56:39.684Z,100410.22
2023-04-28T07:59:24.932Z,100405.09
2023-04-28T08:02:09.897Z,100402.56
2023-04-28T08:04:55.299Z,100407.81
2023-04-28T08:07:40.480Z,100401.09
2023-04-28T08:10:25.841Z,100379.56
2023-04-28T08:13:11.851Z,100375.53
2023-04-28T08:15:56.832Z,100376.72
2023-04-28T08:18:42.265Z,100362.09
2023-04-28T08:21:27.621Z,100346.75
2023-04-28T08:24:12.572Z,100344.22
2023-04-28T08:26:57.612Z,100339.91
2023-04-28T08:29:43.203Z,100343.34
2023-04-28T08:32:28.408Z,100341.50
2023-04-28T08:35:13.950Z,100365.56
2023-04-28T08:37:59.305Z,100382.72
2023-04-28T08:40:44.585Z,100384.28
2023-04-28T08:43:29.668Z,100391.31
2023-04-28T08:46:18.248Z,100402.63
2023-04-28T08:49:06.319Z,100403.47
2023-04-28T08:52:00.193Z,100408.75
2023-04-28T08:54:49.238Z,100414.88
2023-04-28T08:57:55.837Z,100406.25
2023-04-28T09:00:41.009Z,100412.19
2023-04-28T09:03:26.753Z,100414.78
2023-04-28T09:06:12.052Z,100413.91
2023-04-28T09:09:17.946Z,100404.31
2023-04-28T09:12:03.763Z,100411.13
2023-04-28T09:14:58.235Z,100409.44
2023-04-28T09:17:50.499Z,100415.38
2023-04-28T09:20:36.756Z,100413.56
2023-04-28T09:23:24.349Z,100416.16
2023-04-28T09:26:09.704Z,100418.72
2023-04-28T09:29:11.938Z,100403.16
2023-04-28T09:32:14.757Z,100402.13
2023-04-28T09:35:00.256Z,100385.88
2023-04-28T09:37:45.698Z,100385.97
2023-04-28T09:40:30.835Z,100391.31
2023-04-28T09:43:35.375Z,100387.94
2023-04-28T09:46:29.173Z,100390.63
2023-04-28T09:49:14.760Z,100381.97
2023-04-28T09:52:13.523Z,100384.56
2023-04-28T09:55:02.836Z,100385.31
2023-04-28T09:57:50.261Z,100384.50
2023-04-28T10:00:36.678Z,100377.66
2023-04-28T10:03:29.409Z,100363.75
2023-04-28T10:06:15.468Z,100359.41
2023-04-28T10:09:01.638Z,100356.91
2023-04-28T10:11:47.337Z,100356.22
2023-04-28T10:14:33.195Z,100355.38
2023-04-28T10:17:18.486Z,100350.25
2023-04-28T10:20:04.912Z,100341.63
2023-04-28T10:22:55.756Z,100338.91
2023-04-28T10:25:42.621Z,100333.69
2023-04-28T10:28:27.738Z,100337.22
2023-04-28T10:31:14.163Z,100324.25
2023-04-28T10:34:22.208Z,100326.84
2023-04-28T10:37:07.247Z,100316.38
2023-04-28T10:40:30.675Z,100315.53
2023-04-28T10:43:27.816Z,100306.91
2023-04-28T10:46:13.153Z,100313.03
2023-04-28T10:48:58.585Z,100307.03
2023-04-28T10:51:43.937Z,100302.66
2023-04-28T10:54:29.333Z,100280.16
2023-04-28T10:57:15.502Z,100283.66
2023-04-28T11:00:29.617Z,100265.41
2023-04-28T11:03:42.906Z,100260.97
2023-04-28T11:06:54.377Z,100238.50
2023-04-28T11:09:39.165Z,100226.47
2023-04-28T11:12:24.765Z,100247.13
2023-04-28T11:15:13.208Z,100234.06
2023-04-28T11:17:59.376Z,100230.56
2023-04-28T11:20:55.186Z,100228.72
2023-04-28T11:23:40.520Z,100217.41
2023-04-28T11:26:27.763Z,100201.75
2023-04-28T11:29:13.004Z,100199.97
2023-04-28T11:31:58.120Z,100196.56
2023-04-28T11:34:51.844Z,100191.34
2023-04-28T11:37:36.728Z,100201.00
2023-04-28T11:40:22.136Z,100201.13
2023-04-28T11:43:07.548Z,100214.91
2023-04-28T11:45:52.504Z,100206.97
2023-04-28T11:48:38.271Z,100211.31
2023-04-28T11:51:29.383Z,100213.91
2023-04-28T11:54:21.123Z,100206.69
2023-04-28T11:57:06.424Z,100199.94
2023-04-28T11:59:51.736Z,100192.16
2023-04-28T12:02:37.365Z,100190.13
2023-04-28T12:05:22.685Z,100164.09
2023-04-28T12:08:08.079Z,100166.84
2023-04-28T12:11:13.324Z,100175.41
2023-04-28T12:14:06.875Z,100146.00
2023-04-28T12:16:52.440Z,100153.72
2023-04-28T12:19:44.379Z,100157.16
2023-04-28T12:22:30.233Z,100173.22
2023-04-28T12:25:17.192Z,100159.16
2023-04-28T12:28:08.394Z,100166.00
2023-04-28T12:31:04.638Z,100155.84
2023-04-28T12:33:49.677Z,100162.72
2023-04-28T12:36:34.558Z,100145.25
2023-04-28T12:39:19.917Z,100145.13
2023-04-28T12:42:04.763Z,100140.19
2023-04-28T12:44:50.221Z,100145.34
2023-04-28T12:47:36.652Z,100142.53
2023-04-28T12:50:21.720Z,100144.44
2023-04-28T12:53:07.212Z,100158.09
2023-04-28T12:55:53.711Z,100149.41
2023-04-28T12:58:39.235Z,100143.50
2023-04-28T13:01:24.488Z,100143.63
2023-04-28T13:04:10.274Z,100170.66
2023-04-28T13:06:55.563Z,100181.44
2023-04-28T13:09:41.419Z,100184.13
2023-04-28T13:12:26.903Z,100207.44
2023-04-28T13:15:12.307Z,100190.00
2023-04-28T13:17:57.617Z,100186.47
2023-04-28T13:21:03.555Z,100176.09
2023-04-28T13:23:48.843Z,100186.69
2023-04-28T13:26:33.797Z,100196.22
2023-04-28T13:29:19.112Z,100191.03
2023-04-28T13:32:04.749Z,100189.28
2023-04-28T13:34:50.862Z,100195.44
2023-04-28T13:37:36.431Z,100184.13
2023-04-28T13:40:21.854Z,100192.78
2023-04-28T13:43:07.083Z,100199.78
2023-04-28T13:45:53.357Z,100211.03
2023-04-28T13:48:40.098Z,100205.81
2023-04-28T13:51:25.079Z,100204.03
2023-04-28T13:54:11.106Z,100215.34
2023-04-28T13:56:57.134Z,100231.97
2023-04-28T13:59:42.604Z,100242.47
2023-04-28T14:02:27.981Z,100245.97
2023-04-28T14:05:13.470Z,100255.53
2023-04-28T14:07:58.930Z,100255.63
2023-04-28T14:10:44.486Z,100260.00
2023-04-28T14:13:29.724Z,100260.03
2023-04-28T14:16:14.619Z,100265.25
2023-04-28T14:19:00.000Z,100262.69
2023-04-28T14:21:45.466Z,100267.94
2023-04-28T14:24:30.605Z,100264.47
2023-04-28T14:27:15.472Z,100268.81
2023-04-28T14:30:00.803Z,100261.88
2023-04-28T14:32:45.813Z,100264.47
2023-04-28T14:35:31.068Z,100259.22
2023-04-28T14:38:16.460Z,100255.78
2023-04-28T14:41:01.768Z,100255.75
2023-04-28T14:43:47.135Z,100249.63
2023-04-28T14:46:32.525Z,100244.34
2023-04-28T14:49:17.931Z,100246.88
2023-04-28T14:52:02.782Z,100230.44
2023-04-28T14:54:51.179Z,100231.25
2023-04-28T14:57:36.121Z,100230.38
2023-04-28T15:00:21.058Z,100228.69
2023-04-28T15:03:06.688Z,100217.44
2023-04-28T15:05:52.499Z,100220.00
2023-04-28T15:08:37.871Z,100216.50
2023-04-28T15:11:22.949Z,100203.13
2023-04-28T15:14:08.209Z,100176.84
2023-04-28T15:16:53.142Z,100174.28
2023-04-28T15:19:38.834Z,100178.50
2023-04-28T15:22:24.225Z,100172.81
2023-04-28T15:25:09.729Z,100178.75
2023-04-28T15:27:55.179Z,100183.94
2023-04-28T15:30:40.566Z,100181.25
2023-04-28T15:33:25.836Z,100172.66
2023-04-28T15:36:12.341Z,100181.13
2023-04-28T15:38:57.347Z,100181.84
2023-04-28T15:41:42.855Z,100175.69
2023-04-28T15:44:30.423Z,100177.47
2023-04-28T15:47:15.683Z,100183.47
2023-04-28T15:50:01.003Z,100181.00
2023-04-28T15:52:46.152Z,100184.53
2023-04-28T15:55:31.458Z,100175.88
2023-04-28T15:58:16.906Z,100170.88
2023-04-28T16:01:01.784Z,100180.28
2023-04-28T16:03:48.309Z,100178.53
2023-04-28T16:06:33.526Z,100172.47
2023-04-28T16:09:19.068Z,100169.84
2023-04-28T16:12:04.480Z,100167.19
2023-04-28T16:14:49.939Z,100160.22
2023-04-28T16:17:36.302Z,100167.16
2023-04-28T16:20:21.495Z,100166.19
2023-04-28T16:23:07.193Z,100160.00
2023-04-28T16:25:52.518Z,100155.72
2023-04-28T16:28:37.421Z,100160.13
2023-04-28T16:31:22.887Z,100159.25
2023-04-28T16:34:08.010Z,100165.34
2023-04-28T16:36:52.937Z,100174.78
2023-04-28T16:39:37.791Z,100167.09
2023-04-28T16:42:23.240Z,100174.75
2023-04-28T16:45:09.103Z,100165.00
2023-04-28T16:47:54.230Z,100162.34
2023-04-28T16:50:40.862Z,100162.22
2023-04-28T16:53:26.032Z,100165.06
2023-04-28T16:56:11.514Z,100163.34
2023-04-28T16:58:56.935Z,100167.81
2023-04-28T17:01:41.950Z,100165.25
2023-04-28T17:04:27.998Z,100167.88
2023-04-28T17:07:13.188Z,100158.38
2023-04-28T17:09:58.635Z,100164.38
2023-04-28T17:12:44.149Z,100153.06
2023-04-28T17:15:29.014Z,100160.09
2023-04-28T17:18:14.339Z,100152.41
2023-04-28T17:20:59.211Z,100156.72
2023-04-28T17:23:44.237Z,100167.19
2023-04-28T17:26:30.359Z,100171.50
2023-04-28T17:29:15.641Z,100170.59
2023-04-28T17:32:01.020Z,100173.31
2023-04-28T17:34:46.352Z,100178.53
2023-04-28T17:37:32.946Z,100178.63
2023-04-28T17:40:18.242Z,100191.50
2023-04-28T17:43:03.330Z,100184.63
2023-04-28T17:45:48.847Z,100195.94
2023-04-28T17:48:34.134Z,100177.84
2023-04-28T17:51:20.513Z,100194.56
2023-04-28T17:54:05.875Z,100206.78
2023-04-28T17:56:51.339Z,100200.78
2023-04-28T17:59:36.711Z,100203.44
2023-04-28T18:02:22.022Z,100220.81
2023-04-28T18:05:08.136Z,100215.56
2023-04-28T18:07:53.225Z,100224.34
2023-04-28T18:10:38.451Z,100233.84
2023-04-28T18:13:23.924Z,100235.63
2023-04-28T18:16:09.241Z,100236.44
2023-04-28T18:18:54.555Z,100237.34
2023-04-28T18:21:39.847Z,100239.16
2023-04-28T18:24:25.426Z,100253.06
2023-04-28T18:27:11.039Z,100264.38
2023-04-28T18:29:56.241Z,100267.84
2023-04-28T18:32:41.811Z,100268.72
2023-04-28T18:35:26.881Z,100270.50
2023-04-28T18:38:11.877Z,100272.28
2023-04-28T18:40:58.066Z,100287.88
2023-04-28T18:43:43.499Z,100294.81
2023-04-28T18:46:28.979Z,100293.97
2023-04-28T18:49:14.180Z,100288.78
2023-04-28T18:51:59.489Z,100286.16
2023-04-28T18:54:44.470Z,100297.47
2023-04-28T18:57:29.767Z,100300.06
2023-04-28T19:00:15.771Z,100294.00
2023-04-28T19:03:00.942Z,100297.47
2023-04-28T19:05:46.559Z,100301.81
2023-04-28T19:08:31.502Z,100310.47
2023-04-28T19:11:17.047Z,100313.94
2023-04-28T19:14:02.326Z,100322.59
2023-04-28T19:16:47.664Z,100322.63
2023-04-28T19:19:33.176Z,100334.78
2023-04-28T19:22:37.196Z,100345.16
2023-04-28T19:25:22.350Z,100346.88
2023-04-28T19:28:07.235Z,100354.66
2023-04-28T19:30:53.420Z,100358.97
2023-04-28T19:33:38.580Z,100363.28
2023-04-28T19:36:23.333Z,100370.19
2023-04-28T19:39:08.114Z,100366.72
2023-04-28T19:41:52.939Z,100371.94
2023-04-28T19:44:38.424Z,100373.66
2023-04-28T19:47:27.610Z,100375.41
2023-04-28T19:50:12.794Z,100365.88
2023-04-28T19:52:57.974Z,100371.97
2023-04-28T19:55:42.797Z,100363.28
2023-04-28T19:58:27.635Z,100358.97
2023-04-28T20:01:12.726Z,100357.28
2023-04-28T20:03:58.101Z,100362.44
2023-04-28T20:06:43.506Z,100362.44
2023-04-28T20:09:28.397Z,100365.00
2023-04-28T20:12:14.139Z,100366.72
2023-04-28T20:14:59.505Z,100364.16
2023-04-28T20:17:44.651Z,100372.78
2023-04-28T20:20:30.062Z,100380.56
2023-04-28T20:23:15.369Z,100377.06
2023-04-28T20:26:02.169Z,100378.81
2023-04-28T20:28:47.436Z,100367.53
2023-04-28T20:31:33.029Z,100382.22
2023-04-28T20:34:18.284Z,100382.22
2023-04-28T20:37:03.767Z,100378.75
2023-04-28T20:39:48.784Z,100373.59
2023-04-28T20:42:33.985Z,100382.22
2023-04-28T20:45:18.827Z,100382.22
2023-04-28T20:48:04.149Z,100384.81
2023-04-28T20:50:49.317Z,100385.69
2023-04-28T20:53:34.534Z,100386.56
2023-04-28T20:56:19.752Z,100391.75
2023-04-28T20:59:04.508Z,100378.78
2023-04-28T21:01:49.388Z,100381.38
2023-04-28T21:04:34.899Z,100378.72
2023-04-28T21:07:19.614Z,100382.22
2023-04-28T21:10:04.883Z,100373.59
2023-04-28T21:12:49.881Z,100381.34
2023-04-28T21:15:41.982Z,100372.72
2023-04-28T21:18:27.380Z,100375.28
2023-04-28T21:21:13.327Z,100375.28
2023-04-28T21:23:58.585Z,100371.81
2023-04-28T21:26:43.506Z,100373.53
2023-04-28T21:29:28.479Z,100368.41
2023-04-28T21:32:13.928Z,100368.41
2023-04-28T21:34:59.477Z,100374.47
2023-04-28T21:37:45.126Z,100369.25
2023-04-28T21:40:30.514Z,100375.28
2023-04-28T21:43:16.538Z,100369.25
2023-04-28T21:46:01.945Z,100375.28
2023-04-28T21:48:47.389Z,100371.84
2023-04-28T21:51:32.525Z,100374.47
2023-04-28T21:54:17.457Z,100371.84
2023-04-28T21:57:02.871Z,100370.97
2023-04-28T21:59:48.579Z,100369.25
2023-04-28T22:02:34.405Z,100367.50
2023-04-28T22:05:20.212Z,100364.03
2023-04-28T22:08:05.394Z,100365.75
2023-04-28T22:10:50.891Z,100371.81
2023-04-28T22:13:36.058Z,100374.38
2023-04-28T22:16:21.812Z,100377.88
2023-04-28T22:19:07.191Z,100383.88
2023-04-28T22:21:52.627Z,100383.00
2023-04-28T22:24:38.077Z,100389.91
2023-04-28T22:27:23.601Z,100395.13
2023-04-28T22:30:09.593Z,100392.53
2023-04-28T22:32:54.938Z,100387.34
2023-04-28T22:35:40.354Z,100389.09
2023-04-28T22:38:25.718Z,100384.75
2023-04-28T22:41:10.871Z,100390.84
2023-04-28T22:43:56.301Z,100394.28
2023-04-28T22:46:41.708Z,100383.06
2023-04-28T22:49:27.234Z,100386.47
2023-04-28T22:52:12.495Z,100398.63
2023-04-28T22:54:58.442Z,100397.81
2023-04-28T22:57:43.418Z,100400.41
2023-04-28T23:00:29.001Z,100391.75
2023-04-28T23:03:13.986Z,100391.75
2023-04-28T23:05:59.627Z,100391.75
2023-04-28T23:08:44.646Z,100387.41
2023-04-28T23:11:29.990Z,100377.88
2023-04-28T23:14:15.418Z,100381.31
2023-04-28T23:17:00.267Z,100377.88
2023-04-28T23:19:45.705Z,100370.94
2023-04-28T23:22:30.643Z,100378.69
2023-04-28T23:25:15.936Z,100366.66
2023-04-28T23:28:01.380Z,100376.16
2023-04-28T23:30:46.755Z,100368.34
2023-04-28T23:33:32.098Z,100364.00
2023-04-28T23:36:17.536Z,100359.72
2023-04-28T23:39:03.008Z,100357.97
2023-04-28T23:41:48.131Z,100363.13
2023-04-28T23:44:33.627Z,100364.81
2023-04-28T23:47:19.112Z,100373.47
2023-04-28T23:50:04.771Z,100370.03
2023-04-28T23:52:50.084Z,100370.03
2023-04-28T23:55:35.585Z,100369.13
2023-04-28T23:58:20.933Z,100378.69
